Time,TemperatureF,DewpointF,PressureIn,WindDirection,WindDirectionDegrees,WindSpeedMPH,WindSpeedGustMPH,Humidity,HourlyPrecipIn,Conditions,Clouds,dailyrainin,SoftwareType,DateUTC
2013-04-29 00:02:00,59.0,40.0,29.72,East,90,0.0,0.0,49,-99.99,,,-99.99,,2013-04-29 05:02:00,
2013-04-29 00:12:00,59.0,40.0,29.72,East,90,0.0,0.0,49,-99.99,,,-99.99,,2013-04-29 05:12:00,
2013-04-29 00:22:00,59.0,40.0,29.72,East,90,0.0,0.0,49,-99.99,,,-99.99,,2013-04-29 05:22:00,
2013-04-29 00:52:00,58.0,41.0,29.72,SSE,148,1.0,2.0,53,-99.99,,,-99.99,,2013-04-29 05:52:00,
2013-04-29 01:02:00,58.0,41.0,29.72,SSE,148,1.0,2.0,53,-99.99,,,-99.99,,2013-04-29 06:02:00,
2013-04-29 01:11:00,58.0,41.0,29.72,SSE,148,1.0,2.0,53,-99.99,,,-99.99,,2013-04-29 06:11:00,
2013-04-29 01:21:00,58.0,42.0,29.72,SE,135,0.0,0.0,55,-99.99,,,-99.99,,2013-04-29 06:21:00,
2013-04-29 01:32:00,58.0,42.0,29.72,SE,135,0.0,0.0,55,-99.99,,,-99.99,,2013-04-29 06:32:00,
2013-04-29 01:42:00,58.0,42.0,29.72,SE,135,0.0,0.0,55,-99.99,,,-99.99,,2013-04-29 06:42:00,
2013-04-29 02:21:00,57.0,41.0,29.71,South,180,0.0,0.0,56,-99.99,,,-99.99,,2013-04-29 07:21:00,
2013-04-29 02:32:00,57.0,41.0,29.71,South,180,0.0,0.0,56,-99.99,,,-99.99,,2013-04-29 07:32:00,
2013-04-29 02:42:00,57.0,41.0,29.71,South,180,0.0,0.0,56,-99.99,,,-99.99,,2013-04-29 07:42:00,
2013-04-29 02:52:00,57.0,42.0,29.72,South,180,0.0,0.0,57,-99.99,,,-99.99,,2013-04-29 07:52:00,
2013-04-29 03:03:00,57.0,42.0,29.72,South,180,0.0,0.0,57,-99.99,,,-99.99,,2013-04-29 08:03:00,
2013-04-29 03:11:00,57.0,42.0,29.72,South,180,0.0,0.0,57,-99.99,,,-99.99,,2013-04-29 08:11:00,
2013-04-29 03:21:00,57.0,43.0,29.72,East,90,0.0,0.0,60,-99.99,,,-99.99,,2013-04-29 08:21:00,
2013-04-29 03:31:00,57.0,43.0,29.72,East,90,0.0,0.0,60,-99.99,,,-99.99,,2013-04-29 08:31:00,
2013-04-29 03:42:00,57.0,43.0,29.72,East,90,0.0,0.0,60,-99.99,,,-99.99,,2013-04-29 08:42:00,
2013-04-29 03:52:00,56.0,44.0,29.72,East,90,0.0,0.0,63,-99.99,,,-99.99,,2013-04-29 08:52:00,
2013-04-29 04:01:00,56.0,44.0,29.74,SW,225,0.0,0.0,63,-99.99,,,-99.99,,2013-04-29 09:01:00,
2013-04-29 04:12:00,56.0,44.0,29.74,SW,225,0.0,0.0,63,-99.99,,,-99.99,,2013-04-29 09:12:00,
2013-04-29 04:21:00,56.0,44.0,29.75,North,0,0.0,0.0,64,-99.99,,,-99.99,,2013-04-29 09:21:00,
2013-04-29 04:33:00,56.0,44.0,29.75,North,0,0.0,0.0,64,-99.99,,,-99.99,,2013-04-29 09:33:00,
2013-04-29 04:42:00,56.0,44.0,29.75,North,0,0.0,0.0,64,-99.99,,,-99.99,,2013-04-29 09:42:00,
2013-04-29 04:53:00,56.0,46.0,29.74,South,180,0.0,0.0,69,-99.99,,,-99.99,,2013-04-29 09:53:00,
2013-04-29 05:02:00,56.0,46.0,29.74,South,180,0.0,0.0,69,-99.99,,,-99.99,,2013-04-29 10:02:00,
2013-04-29 05:12:00,56.0,46.0,29.74,South,180,0.0,0.0,69,-99.99,,,-99.99,,2013-04-29 10:12:00,
2013-04-29 05:23:00,56.0,47.0,29.73,SE,135,0.0,0.0,71,-99.99,,,-99.99,,2013-04-29 10:23:00,
2013-04-29 05:32:00,56.0,47.0,29.73,SE,135,0.0,0.0,71,-99.99,,,-99.99,,2013-04-29 10:32:00,
2013-04-29 05:42:00,56.0,47.0,29.73,SE,135,0.0,0.0,71,-99.99,,,-99.99,,2013-04-29 10:42:00,
2013-04-29 05:52:00,56.0,47.0,29.73,SE,135,0.0,0.0,71,-99.99,,,-99.99,,2013-04-29 10:52:00,
2013-04-29 06:52:00,55.0,46.0,29.73,SW,225,0.0,1.0,72,-99.99,,,-99.99,,2013-04-29 11:52:00,
2013-04-29 07:01:00,55.0,46.0,29.73,SW,225,0.0,1.0,72,-99.99,,,-99.99,,2013-04-29 12:01:00,
2013-04-29 07:12:00,55.0,46.0,29.73,SW,225,0.0,1.0,72,-99.99,,,-99.99,,2013-04-29 12:12:00,
2013-04-29 07:22:00,55.0,47.0,29.73,SE,135,0.0,0.0,73,-99.99,,,-99.99,,2013-04-29 12:22:00,
2013-04-29 07:31:00,55.0,47.0,29.73,SE,135,0.0,0.0,73,-99.99,,,-99.99,,2013-04-29 12:31:00,
2013-04-29 07:42:00,55.0,47.0,29.73,SE,135,0.0,0.0,73,-99.99,,,-99.99,,2013-04-29 12:42:00,
2013-04-29 07:52:00,55.0,48.0,29.74,South,180,2.0,3.0,78,-99.99,,,-99.99,,2013-04-29 12:52:00,
2013-04-29 08:01:00,55.0,48.0,29.75,South,180,0.0,1.0,78,-99.99,,,-99.99,,2013-04-29 13:01:00,
2013-04-29 08:11:00,55.0,48.0,29.75,South,180,0.0,1.0,78,-99.99,,,-99.99,,2013-04-29 13:11:00,
2013-04-29 08:21:00,55.0,48.0,29.74,East,90,0.0,1.0,77,-99.99,,,-99.99,,2013-04-29 13:21:00,
2013-04-29 08:31:00,55.0,48.0,29.74,East,90,0.0,1.0,77,-99.99,,,-99.99,,2013-04-29 13:31:00,
2013-04-29 08:42:00,55.0,48.0,29.74,East,90,0.0,1.0,77,-99.99,,,-99.99,,2013-04-29 13:42:00,
2013-04-29 08:52:00,55.0,48.0,29.74,South,180,0.0,1.0,77,-99.99,,,-99.99,,2013-04-29 13:52:00,
2013-04-29 09:02:00,55.0,48.0,29.74,South,180,0.0,1.0,77,-99.99,,,-99.99,,2013-04-29 14:02:00,
2013-04-29 09:11:00,55.0,48.0,29.74,South,180,0.0,1.0,77,-99.99,,,-99.99,,2013-04-29 14:11:00,
2013-04-29 09:21:00,55.0,48.0,29.74,South,180,0.0,1.0,77,-99.99,,,-99.99,,2013-04-29 14:21:00,
2013-04-29 09:32:00,56.0,49.0,29.75,SE,135,1.0,3.0,76,-99.99,,,-99.99,,2013-04-29 14:32:00,
2013-04-29 09:42:00,56.0,49.0,29.75,SE,135,1.0,3.0,76,-99.99,,,-99.99,,2013-04-29 14:42:00,
2013-04-29 09:52:00,58.0,50.0,29.74,SE,135,1.0,3.0,74,-99.99,,,-99.99,,2013-04-29 14:52:00,
2013-04-29 10:01:00,58.0,50.0,29.74,SE,135,1.0,3.0,74,-99.99,,,-99.99,,2013-04-29 15:01:00,
2013-04-29 10:12:00,58.0,50.0,29.74,SE,135,1.0,3.0,74,-99.99,,,-99.99,,2013-04-29 15:12:00,
2013-04-29 10:21:00,58.0,50.0,29.74,SE,135,1.0,3.0,74,-99.99,,,-99.99,,2013-04-29 15:21:00,
2013-04-29 10:53:00,66.0,51.0,29.73,SSE,164,2.0,4.0,58,-99.99,,,-99.99,,2013-04-29 15:53:00,
2013-04-29 11:03:00,66.0,51.0,29.73,SSE,164,2.0,4.0,58,-99.99,,,-99.99,,2013-04-29 16:03:00,
2013-04-29 11:12:00,66.0,51.0,29.73,SSE,164,2.0,4.0,58,-99.99,,,-99.99,,2013-04-29 16:12:00,
2013-04-29 11:23:00,68.0,52.0,29.74,South,189,3.0,4.0,57,-99.99,,,-99.99,,2013-04-29 16:23:00,
2013-04-29 11:32:00,68.0,51.0,29.74,SE,139,4.0,6.0,55,-99.99,,,-99.99,,2013-04-29 16:32:00,
2013-04-29 11:42:00,68.0,51.0,29.74,SE,139,4.0,6.0,55,-99.99,,,-99.99,,2013-04-29 16:42:00,
2013-04-29 11:52:00,68.0,52.0,29.75,SSE,159,2.0,4.0,56,-99.99,,,-99.99,,2013-04-29 16:52:00,
2013-04-29 12:02:00,68.0,52.0,29.75,SSE,159,2.0,4.0,56,-99.99,,,-99.99,,2013-04-29 17:02:00,
2013-04-29 12:12:00,68.0,52.0,29.75,SSE,159,2.0,4.0,56,-99.99,,,-99.99,,2013-04-29 17:12:00,
2013-04-29 12:22:00,70.0,51.0,29.74,SSE,148,4.0,7.0,51,-99.99,,,-99.99,,2013-04-29 17:22:00,
2013-04-29 12:32:00,70.0,51.0,29.73,ESE,121,3.0,6.0,51,-99.99,,,-99.99,,2013-04-29 17:32:00,
2013-04-29 12:42:00,70.0,51.0,29.73,ESE,121,3.0,6.0,51,-99.99,,,-99.99,,2013-04-29 17:42:00,
2013-04-29 12:52:00,71.0,51.0,29.72,SSE,168,3.0,4.0,49,-99.99,,,-99.99,,2013-04-29 17:52:00,
2013-04-29 13:01:00,70.0,49.0,29.72,SSE,166,6.0,6.0,47,-99.99,,,-99.99,,2013-04-29 18:01:00,
2013-04-29 13:13:00,70.0,49.0,29.72,SSE,166,6.0,6.0,47,-99.99,,,-99.99,,2013-04-29 18:13:00,
2013-04-29 13:22:00,71.0,51.0,29.71,SSW,202,4.0,5.0,49,-99.99,,,-99.99,,2013-04-29 18:22:00,
2013-04-29 13:32:00,71.0,51.0,29.71,SSW,202,4.0,5.0,49,-99.99,,,-99.99,,2013-04-29 18:32:00,
2013-04-29 13:42:00,71.0,51.0,29.71,SSW,202,4.0,5.0,49,-99.99,,,-99.99,,2013-04-29 18:42:00,
2013-04-29 13:52:00,71.0,51.0,29.70,SSE,165,2.0,5.0,49,-99.99,,,-99.99,,2013-04-29 18:52:00,
2013-04-29 14:01:00,71.0,51.0,29.70,SSW,195,0.0,2.0,49,-99.99,,,-99.99,,2013-04-29 19:01:00,
2013-04-29 14:11:00,71.0,51.0,29.70,SSW,195,0.0,2.0,49,-99.99,,,-99.99,,2013-04-29 19:11:00,
2013-04-29 14:21:00,71.0,51.0,29.70,SSW,195,0.0,2.0,49,-99.99,,,-99.99,,2013-04-29 19:21:00,
2013-04-29 14:31:00,71.0,51.0,29.70,SSW,195,0.0,2.0,49,-99.99,,,-99.99,,2013-04-29 19:31:00,
2013-04-29 14:41:00,71.0,51.0,29.70,SSW,195,0.0,2.0,49,-99.99,,,-99.99,,2013-04-29 19:41:00,
2013-04-29 14:52:00,74.0,51.0,29.68,SSE,148,3.0,7.0,44,-99.99,,,-99.99,,2013-04-29 19:52:00,
2013-04-29 15:02:00,74.0,51.0,29.68,SSE,148,3.0,7.0,44,-99.99,,,-99.99,,2013-04-29 20:02:00,
2013-04-29 15:11:00,74.0,51.0,29.68,SSE,148,3.0,7.0,44,-99.99,,,-99.99,,2013-04-29 20:11:00,
2013-04-29 15:21:00,74.0,51.0,29.68,SE,135,3.0,6.0,44,-99.99,,,-99.99,,2013-04-29 20:21:00,
2013-04-29 15:32:00,73.0,51.0,29.67,South,180,1.0,3.0,46,-99.99,,,-99.99,,2013-04-29 20:32:00,
2013-04-29 15:42:00,73.0,51.0,29.67,South,180,1.0,3.0,46,-99.99,,,-99.99,,2013-04-29 20:42:00,
2013-04-29 15:52:00,73.0,52.0,29.68,South,185,6.0,10.0,47,-99.99,,,-99.99,,2013-04-29 20:52:00,
2013-04-29 16:01:00,72.0,51.0,29.67,SE,130,5.0,6.0,48,-99.99,,,-99.99,,2013-04-29 21:01:00,
2013-04-29 16:11:00,72.0,51.0,29.67,SE,130,5.0,6.0,48,-99.99,,,-99.99,,2013-04-29 21:11:00,
2013-04-29 16:21:00,72.0,53.0,29.67,SSE,163,2.0,7.0,52,-99.99,,,-99.99,,2013-04-29 21:21:00,
2013-04-29 16:33:00,72.0,53.0,29.67,SSE,157,5.0,5.0,51,-99.99,,,-99.99,,2013-04-29 21:33:00,
2013-04-29 16:42:00,72.0,53.0,29.67,SSE,157,5.0,5.0,51,-99.99,,,-99.99,,2013-04-29 21:42:00,
2013-04-29 16:53:00,72.0,52.0,29.66,SSE,159,1.0,5.0,49,-99.99,,,-99.99,,2013-04-29 21:53:00,
2013-04-29 17:02:00,72.0,52.0,29.66,SSE,159,1.0,5.0,49,-99.99,,,-99.99,,2013-04-29 22:02:00,
2013-04-29 17:13:00,72.0,52.0,29.66,SSE,159,1.0,5.0,49,-99.99,,,-99.99,,2013-04-29 22:13:00,
2013-04-29 17:23:00,72.0,52.0,29.66,SSE,159,1.0,5.0,49,-99.99,,,-99.99,,2013-04-29 22:23:00,
2013-04-29 17:32:00,72.0,51.0,29.65,SE,128,3.0,5.0,48,-99.99,,,-99.99,,2013-04-29 22:32:00,
2013-04-29 17:42:00,72.0,51.0,29.65,SE,128,3.0,5.0,48,-99.99,,,-99.99,,2013-04-29 22:42:00,
2013-04-29 17:53:00,72.0,50.0,29.65,South,171,6.0,6.0,46,-99.99,,,-99.99,,2013-04-29 22:53:00,
2013-04-29 18:02:00,71.0,50.0,29.65,SE,130,3.0,8.0,47,-99.99,,,-99.99,,2013-04-29 23:02:00,
2013-04-29 18:11:00,71.0,50.0,29.65,SE,130,3.0,8.0,47,-99.99,,,-99.99,,2013-04-29 23:11:00,
2013-04-29 18:22:00,71.0,50.0,29.66,SSE,148,2.0,7.0,47,-99.99,,,-99.99,,2013-04-29 23:22:00,
2013-04-29 18:32:00,70.0,50.0,29.67,SSE,153,4.0,8.0,49,-99.99,,,-99.99,,2013-04-29 23:32:00,
2013-04-29 18:42:00,70.0,50.0,29.67,SSE,153,4.0,8.0,49,-99.99,,,-99.99,,2013-04-29 23:42:00,
2013-04-29 18:52:00,70.0,50.0,29.67,SSE,153,4.0,8.0,49,-99.99,,,-99.99,,2013-04-29 23:52:00,
2013-04-29 19:01:00,68.0,51.0,29.67,South,171,2.0,8.0,54,-99.99,,,-99.99,,2013-04-30 00:01:00,
2013-04-29 19:11:00,68.0,51.0,29.67,South,171,2.0,8.0,54,-99.99,,,-99.99,,2013-04-30 00:11:00,
2013-04-29 19:21:00,68.0,51.0,29.67,South,171,2.0,8.0,54,-99.99,,,-99.99,,2013-04-30 00:21:00,
2013-04-29 19:32:00,68.0,51.0,29.67,South,171,2.0,8.0,54,-99.99,,,-99.99,,2013-04-30 00:32:00,
2013-04-29 19:41:00,68.0,51.0,29.67,South,171,2.0,8.0,54,-99.99,,,-99.99,,2013-04-30 00:41:00,
2013-04-29 19:52:00,66.0,49.0,29.67,SSE,148,1.0,4.0,54,-99.99,,,-99.99,,2013-04-30 00:52:00,
2013-04-29 20:02:00,66.0,49.0,29.66,SSE,162,2.0,3.0,54,-99.99,,,-99.99,,2013-04-30 01:02:00,
2013-04-29 20:11:00,66.0,49.0,29.66,SSE,162,2.0,3.0,54,-99.99,,,-99.99,,2013-04-30 01:11:00,
2013-04-29 20:21:00,66.0,49.0,29.66,SE,135,1.0,2.0,55,-99.99,,,-99.99,,2013-04-30 01:21:00,
2013-04-29 20:32:00,65.0,49.0,29.66,East,94,1.0,3.0,56,-99.99,,,-99.99,,2013-04-30 01:32:00,
2013-04-29 20:41:00,65.0,49.0,29.66,East,94,1.0,3.0,56,-99.99,,,-99.99,,2013-04-30 01:41:00,
2013-04-29 20:52:00,65.0,49.0,29.67,SSE,162,0.0,2.0,57,-99.99,,,-99.99,,2013-04-30 01:52:00,
2013-04-29 21:01:00,65.0,50.0,29.67,ESE,108,1.0,2.0,58,-99.99,,,-99.99,,2013-04-30 02:01:00,
2013-04-29 21:11:00,65.0,50.0,29.67,ESE,108,1.0,2.0,58,-99.99,,,-99.99,,2013-04-30 02:11:00,
2013-04-29 21:21:00,65.0,50.0,29.67,ESE,108,1.0,2.0,58,-99.99,,,-99.99,,2013-04-30 02:21:00,
2013-04-29 21:31:00,64.0,50.0,29.67,SE,135,1.0,1.0,60,-99.99,,,-99.99,,2013-04-30 02:31:00,
2013-04-29 21:41:00,64.0,50.0,29.67,SE,135,1.0,1.0,60,-99.99,,,-99.99,,2013-04-30 02:41:00,
2013-04-29 21:51:00,64.0,50.0,29.67,SE,135,1.0,2.0,61,-99.99,,,-99.99,,2013-04-30 02:51:00,
2013-04-29 22:01:00,64.0,50.0,29.66,SE,135,1.0,1.0,61,-99.99,,,-99.99,,2013-04-30 03:01:00,
2013-04-29 22:11:00,63.0,49.0,29.65,East,90,0.0,1.0,61,-99.99,,,-99.99,,2013-04-30 03:11:00,
2013-04-29 22:21:00,63.0,49.0,29.65,East,90,0.0,1.0,61,-99.99,,,-99.99,,2013-04-30 03:21:00,
2013-04-29 22:33:00,63.0,50.0,29.65,SE,135,0.0,2.0,63,-99.99,,,-99.99,,2013-04-30 03:33:00,
2013-04-29 22:42:00,63.0,50.0,29.65,SE,135,0.0,2.0,63,-99.99,,,-99.99,,2013-04-30 03:42:00,
2013-04-29 22:52:00,62.0,50.0,29.64,SE,135,1.0,1.0,65,-99.99,,,-99.99,,2013-04-30 03:52:00,
2013-04-29 23:02:00,62.0,51.0,29.64,East,90,1.0,2.0,66,-99.99,,,-99.99,,2013-04-30 04:02:00,
2013-04-29 23:12:00,62.0,51.0,29.64,East,90,1.0,2.0,66,-99.99,,,-99.99,,2013-04-30 04:12:00,
2013-04-29 23:22:00,62.0,51.0,29.64,SE,135,1.0,4.0,67,-99.99,,,-99.99,,2013-04-30 04:22:00,
2013-04-29 23:32:00,61.0,50.0,29.64,ESE,119,1.0,4.0,68,-99.99,,,-99.99,,2013-04-30 04:32:00,
2013-04-29 23:42:00,61.0,50.0,29.64,ESE,119,1.0,4.0,68,-99.99,,,-99.99,,2013-04-30 04:42:00,
2013-04-29 23:52:00,61.0,51.0,29.64,SE,135,1.0,7.0,69,-99.99,,,-99.99,,2013-04-30 04:52:00,